Time;durP1;ratioP1;P1;durP2;ratioP2;P2;SDS_P1;SDS_P2;PMS_P1;PMS_P2;Temp;Humidity;BMP_temperature;BMP_pressure;BME280_temperature;BME280_humidity;BME280_pressure;Samples;Min_cycle;Max_cycle;Signal;HPM_P1;HPM_P2
2023/12/25 00:01:25;;;;;;;25.83;6.10;;;12.90;99.90;;;;;;4131792;28;20060;-62
2023/12/25 00:03:27;;;;;;;34.38;5.25;;;13.00;99.90;;;;;;4131742;28;20533;-62
2023/12/25 00:05:41;;;;;;;25.35;5.65;;;13.00;99.90;;;;;;4131493;28;20096;-62
2023/12/25 00:07:43;;;;;;;31.02;6.45;;;12.90;99.90;;;;;;4131881;28;20050;-62
2023/12/25 00:09:45;;;;;;;29.95;5.20;;;12.90;99.90;;;;;;4131631;28;20142;-63
2023/12/25 00:11:47;;;;;;;23.27;5.40;;;12.90;99.90;;;;;;4131723;28;20077;-63
2023/12/25 00:13:54;;;;;;;30.55;5.80;;;12.90;99.90;;;;;;4114222;28;20138;-63
2023/12/25 00:15:57;;;;;;;18.88;5.03;;;12.90;99.90;;;;;;4131594;28;20057;-63
2023/12/25 00:17:59;;;;;;;30.98;6.25;;;12.90;99.90;;;;;;4131760;28;20066;-63
2023/12/25 00:20:03;;;;;;;28.85;5.65;;;13.00;99.90;;;;;;4131142;28;20049;-63
2023/12/25 00:22:05;;;;;;;27.98;5.28;;;12.90;99.90;;;;;;4131561;28;20049;-63
2023/12/25 00:24:07;;;;;;;24.55;5.13;;;12.90;99.90;;;;;;4131587;28;20054;-63
2023/12/25 00:26:10;;;;;;;19.73;4.20;;;12.90;99.90;;;;;;4131883;28;20405;-63
2023/12/25 00:28:12;;;;;;;24.23;4.93;;;12.90;99.90;;;;;;4116245;28;20556;-63
2023/12/25 00:30:15;;;;;;;16.23;3.92;;;12.90;99.90;;;;;;4137129;28;20133;-63
2023/12/25 00:32:17;;;;;;;21.52;4.80;;;12.90;99.90;;;;;;4137039;28;20056;-63
2023/12/25 00:34:20;;;;;;;25.98;5.47;;;12.90;99.90;;;;;;4137192;28;20500;-63
2023/12/25 00:36:22;;;;;;;27.98;5.07;;;12.90;99.90;;;;;;4136379;28;20049;-65
2023/12/25 00:38:24;;;;;;;28.05;4.60;;;12.90;99.90;;;;;;4136868;28;20057;-63
2023/12/25 00:40:26;;;;;;;23.88;5.15;;;12.90;99.90;;;;;;4119458;28;20066;-63
2023/12/25 00:42:29;;;;;;;28.83;5.00;;;12.90;99.90;;;;;;4136856;28;20460;-63
2023/12/25 00:44:30;;;;;;;24.45;4.75;;;12.90;99.90;;;;;;4136804;28;20413;-63
2023/12/25 00:46:34;;;;;;;27.90;6.05;;;12.90;99.90;;;;;;4136778;28;20101;-66
2023/12/25 00:48:36;;;;;;;19.13;4.40;;;12.90;99.90;;;;;;4137250;28;20073;-68
2023/12/25 00:50:38;;;;;;;24.88;5.07;;;12.90;99.90;;;;;;4137593;28;20046;-64
2023/12/25 00:52:41;;;;;;;22.45;4.72;;;12.90;99.90;;;;;;4137881;28;20046;-64
2023/12/25 00:54:43;;;;;;;22.98;4.80;;;12.90;99.90;;;;;;4136828;28;20050;-64
2023/12/25 00:56:45;;;;;;;20.70;4.93;;;12.90;99.90;;;;;;4136702;28;20046;-63
2023/12/25 00:58:47;;;;;;;23.40;5.85;;;12.90;99.90;;;;;;4136856;28;20053;-62
2023/12/25 01:00:49;;;;;;;26.40;5.28;;;12.80;99.90;;;;;;4119273;28;20047;-63
2023/12/25 01:02:53;;;;;;;24.80;4.70;;;12.80;99.90;;;;;;4136918;28;20046;-63
2023/12/25 01:04:55;;;;;;;23.58;4.72;;;12.80;99.90;;;;;;4136485;28;20046;-64
2023/12/25 01:06:57;;;;;;;29.40;5.03;;;12.80;99.90;;;;;;4136560;28;20082;-63
2023/12/25 01:08:59;;;;;;;29.15;5.15;;;12.80;99.90;;;;;;4136587;28;20058;-63
2023/12/25 01:11:03;;;;;;;26.45;5.53;;;12.90;99.90;;;;;;4136597;28;20121;-62
2023/12/25 01:13:05;;;;;;;29.63;5.13;;;12.80;99.90;;;;;;4119378;28;20110;-63
2023/12/25 01:15:08;;;;;;;26.90;5.38;;;12.80;99.90;;;;;;4136510;28;20105;-63
2023/12/25 01:17:10;;;;;;;21.08;4.65;;;12.90;99.90;;;;;;4136751;28;20050;-63
2023/12/25 01:19:13;;;;;;;26.63;5.70;;;12.90;99.90;;;;;;4136428;28;20053;-63
2023/12/25 01:21:17;;;;;;;24.85;5.38;;;12.90;99.90;;;;;;4136521;28;20050;-62
2023/12/25 01:23:19;;;;;;;22.83;4.88;;;12.90;99.90;;;;;;4136809;28;20046;-62
2023/12/25 01:25:21;;;;;;;28.13;5.72;;;12.90;99.90;;;;;;4136648;28;20117;-65
2023/12/25 01:27:23;;;;;;;23.42;5.13;;;12.90;99.90;;;;;;4119215;28;20055;-63
2023/12/25 01:29:25;;;;;;;25.02;4.85;;;12.90;99.90;;;;;;4136565;28;20069;-63
2023/12/25 01:31:27;;;;;;;23.52;4.80;;;12.90;99.90;;;;;;4136488;28;20042;-63
2023/12/25 01:33:29;;;;;;;32.72;7.88;;;12.90;99.90;;;;;;4136146;28;20112;-63
2023/12/25 01:35:33;;;;;;;20.98;5.13;;;12.90;99.90;;;;;;4136544;28;20070;-63
2023/12/25 01:37:35;;;;;;;30.83;5.35;;;12.90;99.90;;;;;;4136535;28;20082;-62
2023/12/25 01:39:37;;;;;;;18.88;4.13;;;12.90;99.90;;;;;;4134812;28;20129;-62
2023/12/25 01:41:39;;;;;;;21.08;4.68;;;12.90;99.90;;;;;;4134034;28;20077;-65
2023/12/25 01:43:41;;;;;;;23.88;6.10;;;13.00;99.90;;;;;;4134211;28;20050;-64
2023/12/25 01:45:43;;;;;;;20.48;4.72;;;12.90;99.90;;;;;;4134069;28;20097;-62
2023/12/25 01:47:45;;;;;;;18.52;4.32;;;12.90;99.90;;;;;;4133512;28;20480;-61
2023/12/25 01:49:48;;;;;;;22.27;5.57;;;12.90;99.90;;;;;;4116626;28;20050;-60
2023/12/25 01:51:51;;;;;;;33.50;5.30;;;12.90;99.90;;;;;;4133861;28;20477;-62
2023/12/25 01:53:54;;;;;;;21.42;4.97;;;12.90;99.90;;;;;;4133757;28;20046;-63
2023/12/25 01:55:56;;;;;;;22.27;4.75;;;12.90;99.90;;;;;;4133860;28;20054;-63
2023/12/25 01:57:58;;;;;;;23.60;5.05;;;12.90;99.90;;;;;;4133797;28;20493;-62
2023/12/25 02:00:00;;;;;;;26.65;5.32;;;12.90;99.90;;;;;;4116487;28;20046;-62
2023/12/25 02:02:02;;;;;;;22.55;5.00;;;12.90;99.90;;;;;;4133425;28;20060;-62
2023/12/25 02:04:05;;;;;;;23.60;4.75;;;12.90;99.90;;;;;;4134204;28;20073;-65
2023/12/25 02:06:08;;;;;;;25.00;5.13;;;12.90;99.90;;;;;;4133761;28;20066;-60
2023/12/25 02:08:14;;;;;;;22.10;4.72;;;12.90;99.90;;;;;;4133658;28;20383;-60
2023/12/25 02:10:27;;;;;;;20.58;4.60;;;12.90;99.90;;;;;;4133407;28;20062;-62
2023/12/25 02:12:29;;;;;;;18.98;4.43;;;12.90;99.90;;;;;;4133486;28;20141;-61
2023/12/25 02:14:31;;;;;;;25.52;5.82;;;12.90;99.90;;;;;;4116297;28;20058;-61
2023/12/25 02:16:35;;;;;;;25.25;5.95;;;12.90;99.90;;;;;;4133102;28;20057;-61
2023/12/25 02:18:37;;;;;;;24.33;5.22;;;12.80;99.90;;;;;;4133341;28;20125;-61
2023/12/25 02:20:40;;;;;;;25.52;5.10;;;12.90;99.90;;;;;;4133225;28;20108;-61
2023/12/25 02:22:42;;;;;;;20.98;4.78;;;12.90;99.90;;;;;;4133128;28;20050;-61
2023/12/25 02:24:54;;;;;;;20.85;4.32;;;12.90;99.90;;;;;;4133149;28;20050;-62
2023/12/25 02:26:57;;;;;;;17.42;4.57;;;12.90;99.90;;;;;;4133034;28;20042;-61
2023/12/25 02:28:59;;;;;;;23.55;4.22;;;12.80;99.90;;;;;;4133513;28;20081;-63
2023/12/25 02:31:01;;;;;;;20.98;4.68;;;12.90;99.90;;;;;;4132921;28;20130;-61
2023/12/25 02:33:04;;;;;;;21.08;4.45;;;12.90;99.90;;;;;;4133277;28;20112;-63
2023/12/25 02:35:07;;;;;;;18.90;4.50;;;12.90;99.90;;;;;;4133118;28;20133;-63
2023/12/25 02:37:10;;;;;;;18.02;4.15;;;12.90;99.90;;;;;;4115733;28;20051;-62
2023/12/25 02:39:12;;;;;;;19.20;4.65;;;12.90;99.90;;;;;;4133138;28;20046;-63
2023/12/25 02:41:14;;;;;;;18.90;4.30;;;12.90;99.90;;;;;;4115515;28;20046;-63
2023/12/25 02:43:18;;;;;;;23.38;4.47;;;12.90;99.90;;;;;;4133168;28;20124;-62
2023/12/25 02:45:20;;;;;;;19.50;4.15;;;12.90;99.90;;;;;;4132674;28;20050;-63
2023/12/25 02:47:22;;;;;;;20.67;3.97;;;13.00;99.90;;;;;;4132835;28;20075;-62
2023/12/25 02:49:24;;;;;;;17.63;4.30;;;12.90;99.90;;;;;;4132800;28;20050;-63
2023/12/25 02:51:27;;;;;;;13.82;3.45;;;13.00;99.90;;;;;;4132857;28;20471;-63
2023/12/25 02:53:31;;;;;;;22.65;4.15;;;13.00;99.90;;;;;;4132940;28;20055;-62
2023/12/25 02:55:33;;;;;;;19.77;4.50;;;12.90;99.90;;;;;;4132813;28;20042;-63
2023/12/25 02:57:35;;;;;;;16.77;4.25;;;12.90;99.90;;;;;;4132781;28;20046;-62
2023/12/25 02:59:38;;;;;;;22.08;3.45;;;12.90;99.90;;;;;;4132254;28;20043;-63
2023/12/25 03:01:40;;;;;;;19.88;4.13;;;12.90;99.90;;;;;;4132529;28;20046;-63
2023/12/25 03:03:42;;;;;;;24.38;4.60;;;12.90;99.90;;;;;;4115386;28;20458;-63
2023/12/25 03:05:45;;;;;;;18.77;3.78;;;12.90;99.90;;;;;;4115326;28;20042;-62
2023/12/25 03:07:47;;;;;;;24.02;4.10;;;12.90;99.90;;;;;;4132725;28;20133;-62
2023/12/25 03:09:49;;;;;;;18.95;4.35;;;12.90;99.90;;;;;;4132339;28;20058;-63
2023/12/25 03:11:51;;;;;;;19.42;3.90;;;12.90;99.90;;;;;;4132448;28;20046;-62
2023/12/25 03:13:53;;;;;;;15.77;4.28;;;12.90;99.90;;;;;;4132586;28;20485;-63
2023/12/25 03:15:57;;;;;;;21.67;4.30;;;13.00;99.90;;;;;;4132267;28;20047;-62
2023/12/25 03:17:58;;;;;;;20.45;4.85;;;12.90;99.90;;;;;;4132291;28;20425;-62
2023/12/25 03:20:03;;;;;;;19.33;4.47;;;12.90;99.90;;;;;;4132554;28;20125;-61
2023/12/25 03:22:05;;;;;;;14.65;3.78;;;12.90;99.90;;;;;;4114984;28;20069;-63
2023/12/25 03:24:09;;;;;;;16.55;3.90;;;12.90;99.90;;;;;;4132440;28;20381;-62
2023/12/25 03:26:11;;;;;;;19.27;4.10;;;12.90;99.90;;;;;;4132481;28;20050;-63
2023/12/25 03:28:13;;;;;;;26.08;5.03;;;12.90;99.90;;;;;;4132304;28;20054;-62
2023/12/25 03:30:15;;;;;;;22.02;4.10;;;12.90;99.90;;;;;;4132199;28;20054;-61
2023/12/25 03:32:19;;;;;;;20.00;4.35;;;12.90;99.90;;;;;;4132677;28;20097;-63
2023/12/25 03:34:21;;;;;;;19.83;4.53;;;12.90;99.90;;;;;;4132383;28;20045;-63
2023/12/25 03:36:23;;;;;;;20.33;4.45;;;12.90;99.90;;;;;;4132214;28;20054;-61
2023/12/25 03:38:25;;;;;;;18.25;3.72;;;12.90;99.90;;;;;;4132170;28;20108;-62
2023/12/25 03:40:27;;;;;;;14.27;3.65;;;12.90;99.90;;;;;;4132177;28;20050;-63
2023/12/25 03:42:33;;;;;;;24.35;4.32;;;12.90;99.90;;;;;;4131909;28;20108;-62
2023/12/25 03:44:35;;;;;;;18.67;3.92;;;13.00;99.90;;;;;;4131900;28;20048;-62
2023/12/25 03:46:37;;;;;;;14.13;3.50;;;12.90;99.90;;;;;;4132010;28;20058;-62
2023/12/25 03:48:40;;;;;;;28.02;4.15;;;12.90;99.90;;;;;;4131862;28;20050;-62
2023/12/25 03:50:42;;;;;;;17.27;4.18;;;12.90;99.90;;;;;;4131818;28;20047;-62
2023/12/25 03:52:44;;;;;;;22.77;3.95;;;12.90;99.90;;;;;;4131981;28;20096;-63
2023/12/25 03:54:46;;;;;;;19.02;4.07;;;12.90;99.90;;;;;;4131850;28;20053;-62
2023/12/25 03:56:48;;;;;;;15.95;3.80;;;12.90;99.90;;;;;;4131868;28;20169;-63
2023/12/25 03:58:50;;;;;;;18.17;3.92;;;12.90;99.90;;;;;;4131729;28;20137;-62
2023/12/25 04:00:52;;;;;;;23.55;4.28;;;12.90;99.90;;;;;;4132180;28;20524;-63
2023/12/25 04:02:56;;;;;;;16.60;3.15;;;12.90;99.90;;;;;;4131508;28;20055;-64
2023/12/25 04:04:59;;;;;;;15.77;3.60;;;12.90;99.90;;;;;;4131821;28;20121;-62
2023/12/25 04:07:01;;;;;;;15.32;3.08;;;12.90;99.90;;;;;;4131714;28;20149;-62
2023/12/25 04:09:06;;;;;;;19.90;4.03;;;12.90;99.90;;;;;;4131546;28;20055;-63
2023/12/25 04:11:17;;;;;;;23.05;3.90;;;12.90;99.90;;;;;;4131933;28;20138;-63
2023/12/25 04:13:19;;;;;;;17.30;3.55;;;12.90;99.90;;;;;;4131365;28;20457;-63
2023/12/25 04:15:22;;;;;;;19.60;3.92;;;12.80;99.90;;;;;;4131694;28;20432;-63
2023/12/25 04:17:24;;;;;;;17.80;3.83;;;12.80;99.90;;;;;;4131671;28;20117;-62
2023/12/25 04:19:26;;;;;;;13.88;3.58;;;12.80;99.90;;;;;;4131908;28;20063;-62
2023/12/25 04:21:31;;;;;;;13.90;3.90;;;12.80;99.90;;;;;;4131727;28;20046;-62
2023/12/25 04:23:33;;;;;;;;;;;12.80;99.90;;;;;;4132635;28;20081;-62
2023/12/25 04:25:35;;;;;;;10.50;2.72;;;12.80;99.90;;;;;;4131440;28;19925;-62
2023/12/25 04:27:37;;;;;;;16.83;3.25;;;12.70;99.90;;;;;;4131048;28;20051;-61
2023/12/25 04:29:39;;;;;;;11.07;2.75;;;12.80;99.90;;;;;;4131597;28;20057;-62
2023/12/25 04:31:41;;;;;;;13.20;2.60;;;12.80;99.90;;;;;;4131595;28;20502;-61
2023/12/25 04:33:43;;;;;;;13.27;3.22;;;12.80;99.90;;;;;;4114298;28;20454;-63
2023/12/25 04:35:46;;;;;;;10.27;2.72;;;12.80;99.90;;;;;;4131651;28;20117;-69
2023/12/25 04:37:49;;;;;;;10.77;2.22;;;12.80;99.90;;;;;;4131600;28;20126;-63
2023/12/25 04:39:51;;;;;;;14.63;3.05;;;12.80;99.90;;;;;;4131781;28;20050;-62
2023/12/25 04:41:53;;;;;;;15.95;2.70;;;12.80;99.90;;;;;;4131159;28;20143;-62
2023/12/25 04:43:56;;;;;;;11.63;2.20;;;12.80;99.90;;;;;;4131693;28;20158;-63
2023/12/25 04:45:58;;;;;;;10.05;2.22;;;12.80;99.90;;;;;;4131428;28;20046;-62
2023/12/25 04:48:01;;;;;;;13.52;2.42;;;12.80;99.90;;;;;;4131740;28;20043;-62
2023/12/25 04:50:04;;;;;;;14.13;2.75;;;12.90;99.90;;;;;;4131570;28;20566;-62
2023/12/25 04:52:07;;;;;;;10.77;3.33;;;12.90;99.90;;;;;;4131394;28;20089;-62
2023/12/25 04:54:10;;;;;;;16.83;3.08;;;12.90;99.90;;;;;;4131486;28;20052;-62
2023/12/25 04:56:12;;;;;;;16.13;3.30;;;12.90;99.90;;;;;;4131066;28;20042;-62
2023/12/25 04:58:14;;;;;;;14.70;2.92;;;12.90;99.90;;;;;;4131405;28;20280;-62
2023/12/25 05:00:17;;;;;;;7.13;1.60;;;12.90;99.90;;;;;;4114335;28;20538;-62
2023/12/25 05:02:19;;;;;;;9.77;2.60;;;12.80;99.90;;;;;;4131594;28;20054;-63
2023/12/25 05:04:21;;;;;;;14.50;2.45;;;12.80;99.90;;;;;;4131523;28;20077;-65
2023/12/25 05:06:23;;;;;;;13.23;2.92;;;12.90;99.90;;;;;;4131823;28;20042;-63
2023/12/25 05:08:25;;;;;;;11.63;2.60;;;12.90;99.90;;;;;;4131646;28;20137;-62
2023/12/25 05:10:29;;;;;;;12.88;2.70;;;12.90;99.90;;;;;;4130995;28;20105;-62
2023/12/25 05:12:31;;;;;;;13.75;2.28;;;12.90;99.90;;;;;;4131216;28;20070;-62
2023/12/25 05:14:33;;;;;;;10.07;2.80;;;12.90;99.90;;;;;;4131283;28;20046;-62
2023/12/25 05:16:35;;;;;;;12.98;2.33;;;12.90;99.90;;;;;;4134494;28;20519;-62
2023/12/25 05:18:37;;;;;;;10.63;2.28;;;12.90;99.90;;;;;;4134498;28;20082;-62
2023/12/25 05:20:40;;;;;;;11.27;2.42;;;12.90;99.90;;;;;;4134562;28;20469;-63
2023/12/25 05:22:42;;;;;;;9.90;2.60;;;12.80;99.90;;;;;;4134496;28;20058;-64
2023/12/25 05:24:44;;;;;;;10.07;2.40;;;12.90;99.90;;;;;;4133992;28;20140;-62
2023/12/25 05:26:47;;;;;;;9.85;2.10;;;12.90;99.90;;;;;;4134315;28;20129;-63
2023/12/25 05:28:49;;;;;;;10.82;2.08;;;12.90;99.90;;;;;;4134402;28;20492;-62
2023/12/25 05:30:52;;;;;;;11.75;1.85;;;12.80;99.90;;;;;;4134233;28;20556;-63
2023/12/25 05:32:57;;;;;;;8.80;2.00;;;12.80;99.90;;;;;;4134002;28;20478;-62
2023/12/25 05:34:59;;;;;;;7.35;1.92;;;12.90;99.90;;;;;;4134033;28;20125;-62
2023/12/25 05:37:01;;;;;;;13.48;2.75;;;12.80;99.90;;;;;;4134159;28;20125;-63
2023/12/25 05:39:04;;;;;;;8.38;1.98;;;12.80;99.90;;;;;;4133529;28;20097;-61
2023/12/25 05:41:15;;;;;;;9.77;1.98;;;12.80;99.90;;;;;;4134181;28;20081;-62
2023/12/25 05:43:18;;;;;;;7.10;1.58;;;12.80;99.90;;;;;;4134004;28;20058;-62
2023/12/25 05:45:21;;;;;;;8.35;1.65;;;12.80;99.90;;;;;;4133857;28;20084;-61
2023/12/25 05:47:24;;;;;;;10.27;2.20;;;12.80;99.90;;;;;;4133864;28;20508;-62
2023/12/25 05:49:26;;;;;;;5.80;1.90;;;12.80;99.90;;;;;;4133887;28;20046;-63
2023/12/25 05:51:28;;;;;;;9.77;1.92;;;12.80;99.90;;;;;;4133911;28;20047;-62
2023/12/25 05:53:30;;;;;;;8.82;2.30;;;12.80;99.90;;;;;;4133679;28;20092;-62
2023/12/25 05:55:32;;;;;;;9.95;3.10;;;12.80;99.90;;;;;;4133614;28;20054;-62
2023/12/25 05:57:34;;;;;;;7.38;1.80;;;12.70;99.90;;;;;;4133875;28;20042;-62
2023/12/25 05:59:37;;;;;;;8.88;1.58;;;12.70;99.90;;;;;;4133551;28;20057;-62
2023/12/25 06:01:39;;;;;;;8.65;1.83;;;12.80;99.90;;;;;;4133766;28;20125;-62
2023/12/25 06:03:42;;;;;;;7.05;2.10;;;12.70;99.90;;;;;;4133514;28;20065;-63
2023/12/25 06:05:44;;;;;;;6.28;1.90;;;12.70;99.90;;;;;;4133676;28;20387;-62
2023/12/25 06:07:46;;;;;;;7.88;2.28;;;12.70;99.90;;;;;;4133743;28;20043;-62
2023/12/25 06:09:48;;;;;;;5.47;1.45;;;12.80;99.90;;;;;;4133207;28;20093;-62
2023/12/25 06:11:50;;;;;;;8.07;1.92;;;12.70;99.90;;;;;;4133498;28;20073;-62
2023/12/25 06:13:52;;;;;;;6.50;1.40;;;12.70;99.90;;;;;;4133480;28;20477;-62
2023/12/25 06:15:56;;;;;;;5.75;1.23;;;12.70;99.90;;;;;;4133351;28;20073;-62
2023/12/25 06:17:58;;;;;;;7.53;1.30;;;12.70;99.90;;;;;;4133324;28;20113;-62
2023/12/25 06:20:01;;;;;;;5.25;1.55;;;12.70;99.90;;;;;;4116413;28;20449;-62
2023/12/25 06:22:18;;;;;;;5.07;1.20;;;12.70;99.90;;;;;;4133497;28;20081;-62
2023/12/25 06:24:19;;;;;;;4.18;0.90;;;12.70;99.90;;;;;;4115853;28;20406;-62
2023/12/25 06:26:22;;;;;;;8.20;1.40;;;12.70;99.90;;;;;;4132766;28;20050;-62
2023/12/25 06:28:25;;;;;;;6.30;0.93;;;12.70;99.90;;;;;;4133231;28;20480;-62
2023/12/25 06:30:27;;;;;;;5.78;1.10;;;12.70;99.90;;;;;;4133271;28;20050;-62
2023/12/25 06:32:30;;;;;;;8.55;1.52;;;12.60;99.90;;;;;;4133338;28;20050;-63
2023/12/25 06:34:32;;;;;;;5.25;1.20;;;12.70;99.90;;;;;;4133490;28;20046;-64
2023/12/25 06:36:34;;;;;;;4.50;1.40;;;12.70;99.90;;;;;;4133262;28;20052;-62
2023/12/25 06:38:36;;;;;;;5.18;1.50;;;12.80;99.90;;;;;;4132972;28;20054;-63
2023/12/25 06:40:38;;;;;;;4.43;1.23;;;12.70;99.90;;;;;;4116019;28;20050;-62
2023/12/25 06:42:41;;;;;;;7.20;1.33;;;12.70;99.90;;;;;;4132989;28;20053;-62
2023/12/25 06:44:42;;;;;;;5.90;1.20;;;12.70;99.90;;;;;;4133054;28;20405;-62
2023/12/25 06:46:45;;;;;;;4.63;1.52;;;12.70;99.90;;;;;;4133067;28;20049;-62
2023/12/25 06:48:48;;;;;;;4.75;1.27;;;12.70;99.90;;;;;;4133078;28;20046;-62
2023/12/25 06:50:50;;;;;;;6.35;1.20;;;12.70;99.90;;;;;;4133056;28;20050;-62
2023/12/25 06:52:52;;;;;;;4.65;1.30;;;12.70;99.90;;;;;;4132525;28;20084;-63
2023/12/25 06:54:54;;;;;;;3.53;1.02;;;12.70;99.90;;;;;;4132814;28;20047;-63
2023/12/25 06:56:56;;;;;;;3.70;1.00;;;12.70;99.90;;;;;;4132834;28;20050;-63
2023/12/25 06:58:59;;;;;;;2.53;0.80;;;12.70;99.90;;;;;;4115541;28;20482;-63
2023/12/25 07:01:02;;;;;;;4.68;0.90;;;12.70;99.90;;;;;;4132662;28;20058;-62
2023/12/25 07:03:05;;;;;;;5.17;1.20;;;12.70;99.90;;;;;;4132716;28;20066;-63
2023/12/25 07:05:09;;;;;;;4.78;0.90;;;12.70;99.90;;;;;;4132634;28;20433;-63
2023/12/25 07:07:11;;;;;;;6.15;1.35;;;12.70;99.90;;;;;;4132252;28;20104;-62
2023/12/25 07:09:16;;;;;;;4.57;0.88;;;12.70;99.90;;;;;;4132490;28;20074;-63
2023/12/25 07:11:17;;;;;;;;;;;12.80;99.90;;;;;;4133340;28;20482;-61
2023/12/25 07:13:20;;;;;;;6.95;1.23;;;12.80;99.90;;;;;;4132681;28;19929;-61
2023/12/25 07:15:22;;;;;;;4.70;1.00;;;12.70;99.90;;;;;;4132775;28;20504;-62
2023/12/25 07:17:24;;;;;;;3.22;1.15;;;12.70;99.90;;;;;;4132445;28;20356;-62
2023/12/25 07:19:26;;;;;;;2.83;0.98;;;12.70;99.90;;;;;;4132569;28;20054;-61
2023/12/25 07:21:30;;;;;;;3.28;0.90;;;12.70;99.90;;;;;;4132270;28;20116;-62
2023/12/25 07:23:32;;;;;;;5.70;1.27;;;12.70;99.90;;;;;;4132515;28;20096;-62
2023/12/25 07:25:34;;;;;;;7.72;0.80;;;12.70;99.90;;;;;;4132401;28;20042;-61
2023/12/25 07:27:36;;;;;;;4.75;1.30;;;12.70;99.90;;;;;;4115245;28;20126;-63
2023/12/25 07:29:43;;;;;;;3.70;0.90;;;12.70;99.90;;;;;;4132233;28;20053;-62
2023/12/25 07:31:45;;;;;;;4.60;1.38;;;12.70;99.90;;;;;;4132254;28;20414;-63
2023/12/25 07:33:47;;;;;;;5.70;1.25;;;12.70;99.90;;;;;;4132371;28;20417;-62
2023/12/25 07:35:50;;;;;;;3.67;0.90;;;12.70;99.90;;;;;;4131864;28;20046;-62
2023/12/25 07:37:54;;;;;;;4.47;1.15;;;12.70;99.90;;;;;;4114244;28;20070;-63
2023/12/25 07:39:56;;;;;;;3.90;0.90;;;12.70;99.90;;;;;;4132339;28;20054;-62
2023/12/25 07:41:59;;;;;;;6.38;1.60;;;12.70;99.90;;;;;;4132297;28;20110;-62
2023/12/25 07:44:02;;;;;;;3.80;1.10;;;12.60;99.90;;;;;;4132298;28;20089;-62
2023/12/25 07:46:05;;;;;;;5.78;1.25;;;12.70;99.90;;;;;;4115100;28;20043;-62
2023/12/25 07:48:07;;;;;;;5.93;1.27;;;12.70;99.90;;;;;;4132234;28;20085;-62
2023/12/25 07:50:10;;;;;;;3.28;1.10;;;12.70;99.90;;;;;;4131736;28;20151;-62
2023/12/25 07:52:12;;;;;;;4.68;1.10;;;12.70;99.90;;;;;;4132202;28;20053;-64
2023/12/25 07:54:20;;;;;;;1.17;0.60;;;12.70;99.90;;;;;;4132379;28;20050;-67
2023/12/25 07:56:22;;;;;;;4.50;1.13;;;12.70;99.90;;;;;;4132221;28;20077;-62
2023/12/25 07:58:24;;;;;;;3.28;0.90;;;12.70;99.90;;;;;;4132083;28;20050;-62
2023/12/25 08:00:26;;;;;;;6.85;1.63;;;12.70;99.90;;;;;;4132493;28;20089;-63
2023/12/25 08:02:28;;;;;;;4.43;1.27;;;12.70;99.90;;;;;;4131966;28;20339;-62
2023/12/25 08:04:30;;;;;;;3.10;1.00;;;12.70;99.90;;;;;;4131718;28;20108;-62
2023/12/25 08:06:32;;;;;;;4.85;1.10;;;12.70;99.90;;;;;;4131753;28;20042;-63
2023/12/25 08:08:35;;;;;;;3.70;0.90;;;12.70;99.90;;;;;;4114499;28;20063;-62
2023/12/25 08:10:38;;;;;;;3.83;0.77;;;12.70;99.90;;;;;;4132009;28;20085;-63
2023/12/25 08:12:43;;;;;;;3.33;0.90;;;12.70;99.90;;;;;;4130943;28;20155;-62
2023/12/25 08:14:45;;;;;;;4.88;0.90;;;12.70;99.90;;;;;;4131745;28;20042;-62
2023/12/25 08:16:47;;;;;;;4.40;0.77;;;12.70;99.90;;;;;;4114410;28;20050;-62
2023/12/25 08:18:49;;;;;;;2.45;0.65;;;12.70;99.90;;;;;;4131325;28;20065;-63
2023/12/25 08:20:51;;;;;;;4.30;1.00;;;12.70;99.90;;;;;;4131733;28;20069;-63
2023/12/25 08:22:53;;;;;;;2.63;0.80;;;12.70;99.90;;;;;;4114406;28;20601;-62
2023/12/25 08:24:55;;;;;;;3.15;1.02;;;12.70;99.90;;;;;;4131511;28;20046;-63
2023/12/25 08:26:59;;;;;;;2.53;0.80;;;12.70;99.90;;;;;;4114516;28;20470;-63
2023/12/25 08:29:01;;;;;;;3.47;0.80;;;12.70;99.90;;;;;;4131618;28;20054;-62
2023/12/25 08:31:04;;;;;;;5.13;1.17;;;12.70;99.90;;;;;;4131766;28;20137;-62
2023/12/25 08:33:06;;;;;;;5.47;1.25;;;12.70;99.90;;;;;;4131221;28;20046;-63
2023/12/25 08:35:08;;;;;;;2.38;0.73;;;12.70;99.90;;;;;;4131715;28;20128;-62
2023/12/25 08:37:10;;;;;;;3.88;0.70;;;12.70;99.90;;;;;;4131481;28;20078;-62
2023/12/25 08:39:12;;;;;;;5.85;1.10;;;12.70;99.90;;;;;;4131682;28;20405;-62
2023/12/25 08:41:14;;;;;;;4.32;0.95;;;12.70;99.90;;;;;;4131516;28;20048;-62
2023/12/25 08:43:17;;;;;;;6.03;1.30;;;12.70;99.90;;;;;;4131612;28;20105;-62
2023/12/25 08:45:19;;;;;;;5.47;1.23;;;12.70;99.90;;;;;;4131673;28;20453;-63
2023/12/25 08:47:22;;;;;;;2.95;0.93;;;12.60;99.90;;;;;;4114417;28;20678;-62
2023/12/25 08:49:25;;;;;;;6.25;1.30;;;12.70;99.90;;;;;;4132626;28;20481;-64
2023/12/25 08:51:27;;;;;;;5.90;1.00;;;12.70;99.90;;;;;;4134942;28;20067;-63
2023/12/25 08:53:29;;;;;;;5.13;1.00;;;12.80;99.90;;;;;;4134930;28;20100;-62
2023/12/25 08:55:31;;;;;;;2.95;0.70;;;12.80;99.90;;;;;;4134763;28;20057;-64
2023/12/25 08:57:36;;;;;;;2.58;0.82;;;12.80;99.90;;;;;;4134629;28;20054;-62
2023/12/25 08:59:40;;;;;;;4.28;1.08;;;12.90;99.90;;;;;;4134876;28;20046;-62
2023/12/25 09:01:42;;;;;;;5.65;1.10;;;12.90;99.90;;;;;;4134702;28;20058;-66
2023/12/25 09:03:44;;;;;;;2.20;0.70;;;12.90;99.90;;;;;;4134572;28;20072;-64
2023/12/25 09:05:46;;;;;;;2.80;0.82;;;12.90;99.90;;;;;;4117445;28;20051;-63
2023/12/25 09:07:49;;;;;;;6.97;0.90;;;12.90;99.90;;;;;;4134623;28;20409;-63
2023/12/25 09:09:50;;;;;;;4.50;0.90;;;12.90;99.90;;;;;;4134522;28;20137;-63
2023/12/25 09:11:53;;;;;;;3.83;0.70;;;12.90;99.90;;;;;;4134645;28;20137;-62
2023/12/25 09:13:55;;;;;;;3.70;1.10;;;13.00;99.90;;;;;;4134274;28;20043;-62
2023/12/25 09:15:59;;;;;;;1.90;0.80;;;13.00;99.90;;;;;;4134261;28;20047;-63
2023/12/25 09:18:01;;;;;;;7.03;1.35;;;13.00;99.90;;;;;;4134047;28;20117;-62
2023/12/25 09:20:05;;;;;;;4.75;0.85;;;13.00;99.90;;;;;;4134305;28;20048;-63
2023/12/25 09:22:07;;;;;;;3.28;0.75;;;12.90;99.90;;;;;;4134491;28;20070;-63
2023/12/25 09:24:09;;;;;;;5.10;0.85;;;12.90;99.90;;;;;;4134447;28;20081;-62
2023/12/25 09:26:18;;;;;;;2.53;0.77;;;12.90;99.90;;;;;;4134333;28;20046;-63
2023/12/25 09:28:20;;;;;;;3.28;0.80;;;12.90;99.90;;;;;;4117004;28;20515;-63
2023/12/25 09:30:22;;;;;;;1.80;0.80;;;12.90;99.90;;;;;;4133975;28;20077;-62
2023/12/25 09:32:27;;;;;;;3.08;1.00;;;12.90;99.90;;;;;;4133735;28;20093;-62
2023/12/25 09:34:29;;;;;;;1.45;0.80;;;12.90;99.90;;;;;;4134138;28;20054;-62
2023/12/25 09:36:55;;;;;;;2.47;0.93;;;12.90;99.90;;;;;;4133839;28;20121;-62
2023/12/25 09:38:57;;;;;;;3.35;0.63;;;12.90;99.90;;;;;;4134075;28;20046;-62
2023/12/25 09:40:59;;;;;;;2.47;0.60;;;13.00;99.90;;;;;;4134109;28;20054;-62
2023/12/25 09:43:01;;;;;;;4.57;1.00;;;13.00;99.90;;;;;;4133995;28;20046;-62
2023/12/25 09:45:05;;;;;;;5.47;1.05;;;13.00;99.90;;;;;;4134383;28;20078;-63
2023/12/25 09:47:08;;;;;;;4.20;0.82;;;13.00;99.90;;;;;;4133918;28;20053;-68
2023/12/25 09:49:12;;;;;;;4.53;1.10;;;13.00;99.90;;;;;;4134461;28;20046;-64
2023/12/25 09:51:18;;;;;;;2.57;0.73;;;13.00;99.90;;;;;;4133953;28;20050;-65
2023/12/25 09:53:20;;;;;;;4.20;1.00;;;13.00;99.90;;;;;;4133964;28;20884;-62
2023/12/25 09:55:26;;;;;;;4.80;1.10;;;13.00;99.90;;;;;;4117149;28;20078;-62
2023/12/25 09:57:30;;;;;;;4.35;1.05;;;13.10;99.90;;;;;;4134125;28;20062;-62
2023/12/25 09:59:33;;;;;;;3.75;0.88;;;13.00;99.90;;;;;;4133825;28;20387;-66
2023/12/25 10:01:37;;;;;;;2.33;0.88;;;13.00;99.90;;;;;;4132620;28;20050;-60
2023/12/25 10:03:44;;;;;;;5.95;1.33;;;13.00;99.90;;;;;;4133895;28;20046;-62
2023/12/25 10:05:47;;;;;;;1.98;0.70;;;13.00;99.90;;;;;;4116582;28;20051;-62
2023/12/25 10:07:50;;;;;;;4.30;0.85;;;13.10;99.90;;;;;;4134092;28;20077;-62
2023/12/25 10:09:55;;;;;;;2.85;0.82;;;13.10;99.90;;;;;;4134425;28;20054;-65
2023/12/25 10:11:57;;;;;;;3.20;0.88;;;13.10;99.90;;;;;;4134178;28;20054;-62
2023/12/25 10:14:01;;;;;;;2.38;0.75;;;13.10;99.90;;;;;;4133643;28;20058;-62
2023/12/25 10:16:03;;;;;;;3.65;0.90;;;13.20;99.90;;;;;;4115927;28;20047;-62
2023/12/25 10:18:10;;;;;;;2.65;0.82;;;13.20;99.90;;;;;;4133242;28;20129;-61
2023/12/25 10:20:17;;;;;;;3.33;0.90;;;13.20;99.90;;;;;;4133556;28;20069;-62
2023/12/25 10:22:29;;;;;;;2.75;0.70;;;13.30;99.90;;;;;;4133505;28;20046;-62
2023/12/25 10:24:31;;;;;;;3.60;0.80;;;13.40;99.90;;;;;;4133417;28;20149;-62
2023/12/25 10:26:33;;;;;;;4.05;1.17;;;13.40;99.90;;;;;;4133559;28;20514;-61
2023/12/25 10:28:35;;;;;;;3.83;1.40;;;13.30;99.90;;;;;;4133606;28;20485;-64
2023/12/25 10:30:38;;;;;;;2.58;1.00;;;13.30;99.90;;;;;;4133054;28;20441;-62
2023/12/25 10:32:39;;;;;;;3.00;0.98;;;13.30;99.90;;;;;;4133476;28;20081;-61
2023/12/25 10:34:42;;;;;;;4.70;0.80;;;13.40;99.90;;;;;;4133196;28;20050;-62
2023/12/25 10:36:47;;;;;;;2.10;0.75;;;13.40;99.90;;;;;;4115919;28;20133;-62